createdAt,value
2022-12-15T00:00:23.368Z,42.35
2022-12-15T00:03:44.295Z,42.15
2022-12-15T00:07:05.406Z,44.30
2022-12-15T00:10:26.470Z,45.72
2022-12-15T00:13:47.317Z,42.55
2022-12-15T00:17:08.378Z,45.75
2022-12-15T00:20:29.583Z,46.63
2022-12-15T00:23:50.634Z,55.63
2022-12-15T00:27:11.926Z,55.90
2022-12-15T00:30:33.011Z,50.50
2022-12-15T00:33:54.096Z,51.22
2022-12-15T00:37:15.715Z,47.88
2022-12-15T00:40:18.125Z,51.70
2022-12-15T00:43:20.514Z,44.50
2022-12-15T00:46:41.482Z,49.10
2022-12-15T00:50:02.450Z,42.70
2022-12-15T00:53:23.531Z,48.72
2022-12-15T00:56:44.492Z,51.20
2022-12-15T01:00:05.477Z,47.70
2022-12-15T01:03:31.216Z,44.97
2022-12-15T01:06:52.562Z,49.00
2022-12-15T01:10:13.586Z,48.92
2022-12-15T01:13:34.744Z,52.03
2022-12-15T01:16:55.877Z,55.25
2022-12-15T01:20:14.534Z,50.42
2022-12-15T01:23:16.886Z,51.13
2022-12-15T01:26:19.679Z,48.28
2022-12-15T01:29:22.221Z,49.20
2022-12-15T01:32:24.990Z,47.95
2022-12-15T01:35:27.808Z,50.73
2022-12-15T01:38:30.442Z,46.67
2022-12-15T01:41:32.958Z,46.65
2022-12-15T01:44:36.894Z,51.37
2022-12-15T01:47:39.534Z,53.53
2022-12-15T01:51:00.077Z,49.67
2022-12-15T01:54:11.324Z,53.88
2022-12-15T01:57:18.955Z,49.20
2022-12-15T02:00:21.353Z,53.40
2022-12-15T02:03:24.620Z,50.58
2022-12-15T02:06:29.075Z,51.57
2022-12-15T02:09:31.814Z,52.40
2022-12-15T02:13:02.799Z,55.55
2022-12-15T02:16:23.497Z,53.88
2022-12-15T02:19:36.414Z,52.97
2022-12-15T02:23:11.154Z,49.60
2022-12-15T02:26:30.105Z,52.13
2022-12-15T02:29:50.738Z,51.77
2022-12-15T02:33:21.369Z,54.20
2022-12-15T02:36:37.274Z,53.03
2022-12-15T02:39:39.833Z,47.75
2022-12-15T02:42:49.321Z,56.28
2022-12-15T02:46:01.515Z,57.17
2022-12-15T02:49:26.232Z,57.55
2022-12-15T02:52:54.046Z,61.80
2022-12-15T02:56:05.925Z,63.38
2022-12-15T02:59:19.501Z,58.08
2022-12-15T03:02:26.661Z,54.03
2022-12-15T03:05:31.822Z,64.97
2022-12-15T03:08:34.252Z,67.68
2022-12-15T03:11:37.302Z,57.70
2022-12-15T03:14:39.812Z,59.90
2022-12-15T03:17:42.353Z,61.00
2022-12-15T03:20:46.792Z,61.35
2022-12-15T03:23:49.253Z,65.03
2022-12-15T03:26:51.912Z,69.10
2022-12-15T03:29:54.444Z,63.72
2022-12-15T03:32:56.854Z,68.60
2022-12-15T03:36:00.108Z,62.45
2022-12-15T03:39:03.568Z,62.20
2022-12-15T03:42:06.128Z,56.35
2022-12-15T03:45:09.028Z,59.15
2022-12-15T03:48:11.377Z,70.90
2022-12-15T03:51:13.739Z,67.95
2022-12-15T03:54:16.194Z,64.77
2022-12-15T03:57:18.649Z,68.25
2022-12-15T04:00:22.872Z,64.38
2022-12-15T04:03:25.854Z,79.40
2022-12-15T04:06:30.032Z,91.25
2022-12-15T04:09:32.612Z,81.43
2022-12-15T04:12:35.052Z,67.75
2022-12-15T04:15:39.073Z,63.78
2022-12-15T04:18:41.926Z,70.53
2022-12-15T04:21:44.324Z,68.53
2022-12-15T04:25:05.344Z,70.27
2022-12-15T04:28:27.369Z,71.10
2022-12-15T04:31:52.039Z,73.82
2022-12-15T04:35:13.598Z,73.43
2022-12-15T04:38:34.916Z,70.07
2022-12-15T04:41:56.152Z,73.00
2022-12-15T04:45:21.325Z,88.85
2022-12-15T04:48:42.397Z,85.05
2022-12-15T04:52:03.441Z,80.00
2022-12-15T04:55:24.860Z,72.57
2022-12-15T04:58:45.682Z,81.87
2022-12-15T05:02:07.210Z,79.10
2022-12-15T05:05:28.407Z,76.85
2022-12-15T05:08:50.103Z,78.90
2022-12-15T05:12:11.386Z,69.65
2022-12-15T05:15:32.379Z,75.47
2022-12-15T05:18:53.567Z,69.50
2022-12-15T05:22:14.392Z,70.20
2022-12-15T05:25:35.461Z,80.38
2022-12-15T05:28:56.706Z,82.18
2022-12-15T05:31:59.179Z,78.53
2022-12-15T05:35:01.662Z,78.85
2022-12-15T05:38:05.775Z,72.68
2022-12-15T05:41:08.623Z,72.90
2022-12-15T05:44:11.471Z,75.07
2022-12-15T05:47:13.959Z,71.93
2022-12-15T05:50:16.443Z,72.10
2022-12-15T05:53:18.825Z,80.95
2022-12-15T05:56:21.286Z,79.47
2022-12-15T05:59:23.711Z,79.18
2022-12-15T06:02:28.334Z,77.23
2022-12-15T06:05:34.486Z,81.55
2022-12-15T06:08:39.283Z,83.65
2022-12-15T06:11:42.859Z,79.13
2022-12-15T06:14:45.335Z,92.05
2022-12-15T06:17:49.780Z,97.28
2022-12-15T06:21:03.998Z,94.63
2022-12-15T06:24:07.419Z,94.75
2022-12-15T06:27:09.896Z,110.45
2022-12-15T06:30:13.206Z,100.85
2022-12-15T06:33:15.716Z,93.17
2022-12-15T06:36:19.007Z,78.80
2022-12-15T06:39:21.806Z,86.05
2022-12-15T06:42:24.251Z,99.43
2022-12-15T06:45:26.797Z,103.90
2022-12-15T06:48:29.674Z,103.15
2022-12-15T06:51:32.808Z,87.40
2022-12-15T06:54:35.338Z,83.75
2022-12-15T06:57:38.990Z,93.68
2022-12-15T07:00:45.952Z,90.10
2022-12-15T07:03:49.184Z,94.87
2022-12-15T07:06:51.719Z,95.28
2022-12-15T07:09:54.359Z,86.75
2022-12-15T07:12:57.841Z,81.70
2022-12-15T07:16:01.768Z,84.30
2022-12-15T07:19:04.233Z,81.85
2022-12-15T07:22:06.700Z,103.57
2022-12-15T07:25:09.613Z,93.50
2022-12-15T07:28:12.292Z,92.57
2022-12-15T07:31:15.689Z,102.35
2022-12-15T07:34:18.582Z,134.10
2022-12-15T07:37:21.111Z,166.35
2022-12-15T07:40:23.876Z,173.88
2022-12-15T07:43:27.251Z,162.13
2022-12-15T07:46:30.516Z,155.13
2022-12-15T07:49:33.553Z,144.95
2022-12-15T07:52:36.278Z,132.60
2022-12-15T07:56:05.597Z,135.20
2022-12-15T08:03:42.204Z,122.13
2022-12-15T08:06:44.875Z,125.67
2022-12-15T08:09:48.314Z,124.45
2022-12-15T08:12:51.074Z,106.55
2022-12-15T08:15:54.919Z,121.35
2022-12-15T08:18:57.423Z,124.10
2022-12-15T08:22:00.001Z,104.85
2022-12-15T08:25:02.556Z,102.63
2022-12-15T08:28:05.311Z,93.90
2022-12-15T08:31:20.443Z,86.60
2022-12-15T08:34:23.147Z,93.78
2022-12-15T08:37:26.896Z,82.60
2022-12-15T08:40:29.400Z,75.65
2022-12-15T08:43:32.342Z,82.38
2022-12-15T08:46:35.239Z,81.85
2022-12-15T08:49:37.708Z,85.90
2022-12-15T08:52:55.336Z,89.25
2022-12-15T08:56:06.265Z,90.03
2022-12-15T08:59:09.731Z,106.63
2022-12-15T09:02:13.017Z,96.28
2022-12-15T09:05:15.793Z,103.00
2022-12-15T09:08:18.408Z,105.95
2022-12-15T09:11:21.259Z,97.00
2022-12-15T09:14:29.177Z,95.75
2022-12-15T09:17:32.210Z,91.07
2022-12-15T09:20:34.998Z,88.47
2022-12-15T09:23:39.672Z,86.63
2022-12-15T09:26:42.794Z,94.53
2022-12-15T09:29:45.855Z,89.22
2022-12-15T09:32:48.956Z,79.93
2022-12-15T09:35:52.339Z,77.85
2022-12-15T09:38:55.326Z,73.57
2022-12-15T09:42:00.908Z,72.73
2022-12-15T09:45:18.019Z,79.10
2022-12-15T09:48:24.431Z,74.68
2022-12-15T09:51:36.738Z,74.40
2022-12-15T09:54:43.063Z,70.93
2022-12-15T09:58:10.956Z,77.32
2022-12-15T10:01:47.017Z,76.38
2022-12-15T10:04:50.838Z,73.65
2022-12-15T10:07:53.514Z,77.77
2022-12-15T10:11:02.608Z,79.43
2022-12-15T10:14:05.191Z,77.65
2022-12-15T10:17:14.316Z,72.03
2022-12-15T10:20:21.279Z,71.65
2022-12-15T10:23:28.403Z,72.97
2022-12-15T10:26:34.556Z,70.13
2022-12-15T10:33:19.515Z,68.25
2022-12-15T10:36:25.983Z,79.38
2022-12-15T10:39:43.651Z,77.33
2022-12-15T10:42:51.044Z,73.97
2022-12-15T10:46:15.975Z,69.85
2022-12-15T10:49:18.558Z,68.60
2022-12-15T10:52:25.374Z,72.37
2022-12-15T10:55:41.240Z,71.38
2022-12-15T10:58:55.864Z,78.78
2022-12-15T11:02:23.892Z,85.70
2022-12-15T11:05:27.819Z,78.70
2022-12-15T11:08:30.572Z,83.93
2022-12-15T11:11:54.423Z,87.85
2022-12-15T11:14:58.479Z,77.30
2022-12-15T11:18:04.251Z,75.50
2022-12-15T11:21:19.076Z,70.70
2022-12-15T11:24:35.232Z,72.82
2022-12-15T11:27:43.558Z,69.33
2022-12-15T11:30:53.810Z,72.07
2022-12-15T11:33:57.178Z,71.45
2022-12-15T11:37:24.202Z,72.55
2022-12-15T11:40:41.051Z,74.53
2022-12-15T11:43:53.031Z,70.10
2022-12-15T11:47:04.552Z,72.07
2022-12-15T11:50:10.463Z,75.72
2022-12-15T11:53:45.953Z,79.63
2022-12-15T11:57:43.899Z,85.03
2022-12-15T12:01:26.508Z,97.28
2022-12-15T12:04:43.351Z,91.68
2022-12-15T12:07:49.111Z,92.30
2022-12-15T12:11:16.990Z,91.60
2022-12-15T12:14:29.044Z,93.70
2022-12-15T12:17:41.452Z,100.27
2022-12-15T12:24:50.579Z,92.57
2022-12-15T12:28:13.347Z,98.07
2022-12-15T12:31:35.410Z,86.70
2022-12-15T12:35:30.346Z,108.83
2022-12-15T12:38:31.440Z,93.50
2022-12-15T12:41:47.806Z,95.50
2022-12-15T12:44:50.374Z,104.50
2022-12-15T12:47:57.823Z,104.45
2022-12-15T12:51:24.364Z,91.15
2022-12-15T12:54:36.687Z,106.70
2022-12-15T12:57:43.633Z,107.50
2022-12-15T13:01:06.130Z,105.25
2022-12-15T13:04:12.138Z,100.13
2022-12-15T13:07:34.930Z,101.77
2022-12-15T13:10:40.867Z,102.93
2022-12-15T13:17:29.627Z,103.20
2022-12-15T13:20:39.499Z,89.30
2022-12-15T13:23:43.243Z,88.20
2022-12-15T13:26:48.765Z,88.00
2022-12-15T13:30:05.858Z,83.50
2022-12-15T13:33:18.343Z,85.50
2022-12-15T13:36:39.762Z,87.47
2022-12-15T13:39:55.279Z,99.45
2022-12-15T13:43:10.178Z,88.68
2022-12-15T13:46:18.311Z,89.10
2022-12-15T13:49:29.780Z,102.78
2022-12-15T13:53:18.527Z,96.72
2022-12-15T13:56:26.448Z,102.30
2022-12-15T13:59:42.413Z,100.13
2022-12-15T14:02:45.487Z,97.32
2022-12-15T14:05:51.286Z,85.25
2022-12-15T14:08:54.002Z,91.97
2022-12-15T14:11:57.903Z,97.63
2022-12-15T14:15:00.461Z,99.82
2022-12-15T14:18:02.912Z,97.83
2022-12-15T14:21:07.788Z,100.28
2022-12-15T14:24:40.647Z,98.63
2022-12-15T14:27:43.478Z,98.60
2022-12-15T14:30:46.074Z,96.47
2022-12-15T14:34:06.374Z,104.72
2022-12-15T14:37:17.434Z,100.00
2022-12-15T14:40:24.996Z,108.32
2022-12-15T14:43:38.997Z,116.10
2022-12-15T14:46:46.619Z,104.10
2022-12-15T14:49:51.215Z,102.65
2022-12-15T14:53:04.394Z,97.20
2022-12-15T14:56:33.063Z,100.20
2022-12-15T14:59:35.767Z,93.53
2022-12-15T15:02:38.604Z,107.63
2022-12-15T15:03:04.401Z,74.10
2022-12-15T15:03:11.751Z,97.53
2022-12-15T15:03:12.980Z,90.53
2022-12-15T15:06:11.125Z,102.35
2022-12-15T15:09:24.928Z,115.97
2022-12-15T15:12:46.147Z,121.57
2022-12-15T15:16:01.006Z,106.60
2022-12-15T15:19:05.592Z,108.32
2022-12-15T15:22:21.816Z,132.60
2022-12-15T15:25:39.252Z,120.45
2022-12-15T15:28:45.244Z,107.82
2022-12-15T15:31:47.740Z,113.18
2022-12-15T15:34:51.226Z,116.75
2022-12-15T15:38:05.295Z,119.10
2022-12-15T15:41:19.612Z,113.50
2022-12-15T15:44:22.198Z,133.48
2022-12-15T15:47:26.287Z,129.40
2022-12-15T15:50:29.764Z,151.23
2022-12-15T15:53:34.078Z,122.80
2022-12-15T15:56:36.602Z,132.02
2022-12-15T15:59:42.255Z,101.50
2022-12-15T16:02:45.021Z,107.95
2022-12-15T16:05:47.700Z,137.32
2022-12-15T16:08:52.452Z,123.53
2022-12-15T16:11:55.152Z,119.60
2022-12-15T16:14:57.640Z,141.02
2022-12-15T16:18:00.403Z,147.70
2022-12-15T16:21:02.869Z,124.35
2022-12-15T16:24:11.012Z,152.10
2022-12-15T16:27:15.335Z,96.82
2022-12-15T16:30:23.782Z,129.52
2022-12-15T16:33:26.248Z,82.13
2022-12-15T16:36:29.220Z,101.90
2022-12-15T16:39:34.178Z,112.77
2022-12-15T16:42:36.616Z,102.18
2022-12-15T16:45:44.800Z,105.35
2022-12-15T16:48:47.620Z,118.77
2022-12-15T16:52:04.918Z,115.43
2022-12-15T16:55:10.268Z,146.07
2022-12-15T16:58:15.246Z,177.52
2022-12-15T17:01:17.574Z,135.93
2022-12-15T17:04:21.518Z,108.63
2022-12-15T17:07:25.220Z,71.28
2022-12-15T17:10:28.635Z,54.78
2022-12-15T17:13:43.736Z,61.10
2022-12-15T17:16:47.954Z,57.95
2022-12-15T17:20:27.563Z,71.22
2022-12-15T17:23:15.823Z,49.65
2022-12-15T17:26:29.008Z,64.15
2022-12-15T17:29:33.616Z,44.25
2022-12-15T17:32:35.785Z,52.65
2022-12-15T17:35:37.887Z,53.93
2022-12-15T17:38:40.087Z,71.47
2022-12-15T17:41:59.319Z,54.33
2022-12-15T17:45:12.772Z,54.97
2022-12-15T17:48:15.233Z,56.53
2022-12-15T17:51:18.602Z,57.97
2022-12-15T17:54:21.194Z,54.15
2022-12-15T17:57:23.263Z,49.83
2022-12-15T18:00:26.721Z,65.30
2022-12-15T18:03:29.446Z,74.88
2022-12-15T18:06:31.990Z,76.23
2022-12-15T18:09:34.141Z,69.72
2022-12-15T18:12:36.440Z,98.63
2022-12-15T18:15:38.591Z,102.25
2022-12-15T18:18:40.966Z,87.70
2022-12-15T18:21:43.307Z,61.58
2022-12-15T18:24:46.198Z,49.28
2022-12-15T18:27:49.047Z,63.63
2022-12-15T18:30:53.517Z,70.60
2022-12-15T18:34:04.023Z,85.15
2022-12-15T18:37:13.817Z,81.55
2022-12-15T18:40:17.269Z,76.20
2022-12-15T18:43:23.744Z,68.97
2022-12-15T18:46:25.803Z,52.42
2022-12-15T18:49:28.020Z,53.27
2022-12-15T18:52:35.021Z,53.58
2022-12-15T18:55:37.575Z,55.03
2022-12-15T18:58:40.044Z,56.73
2022-12-15T19:01:43.426Z,53.80
2022-12-15T19:04:46.631Z,53.05
2022-12-15T19:07:48.954Z,55.80
2022-12-15T19:10:52.686Z,46.72
2022-12-15T19:13:58.618Z,45.17
2022-12-15T19:17:19.277Z,41.55
2022-12-15T19:20:40.749Z,43.07
2022-12-15T19:23:43.165Z,47.60
2022-12-15T19:26:45.548Z,52.70
2022-12-15T19:29:48.269Z,49.13
2022-12-15T19:32:50.714Z,67.23
2022-12-15T19:35:55.077Z,68.85
2022-12-15T19:38:57.665Z,78.55
2022-12-15T19:42:00.120Z,63.60
2022-12-15T19:45:13.842Z,67.72
2022-12-15T19:48:21.602Z,55.83
2022-12-15T19:51:26.210Z,55.45
2022-12-15T19:54:28.675Z,57.05
2022-12-15T19:57:30.910Z,48.92
2022-12-15T20:00:34.007Z,47.80
2022-12-15T20:03:36.713Z,53.97
2022-12-15T20:06:39.333Z,46.42
2022-12-15T20:09:41.898Z,38.78
2022-12-15T20:12:44.131Z,41.92
2022-12-15T20:15:46.327Z,51.00
2022-12-15T20:18:49.305Z,45.97
2022-12-15T20:21:52.483Z,38.10
2022-12-15T20:24:54.850Z,52.80
2022-12-15T20:28:00.292Z,42.28
2022-12-15T20:31:02.436Z,37.08
2022-12-15T20:34:04.843Z,41.03
2022-12-15T20:37:18.191Z,51.95
2022-12-15T20:40:28.391Z,55.47
2022-12-15T20:43:32.285Z,57.13
2022-12-15T20:46:35.285Z,25.67
2022-12-15T20:49:37.548Z,56.83
2022-12-15T20:52:39.702Z,57.97
2022-12-15T20:55:42.316Z,61.83
2022-12-15T20:58:46.054Z,68.78
2022-12-15T21:01:48.596Z,74.40
2022-12-15T21:04:51.075Z,66.33
2022-12-15T21:07:53.142Z,67.10
2022-12-15T21:11:21.523Z,72.10
2022-12-15T21:14:23.931Z,82.32
2022-12-15T21:17:26.208Z,70.80
2022-12-15T21:20:28.439Z,65.47
2022-12-15T21:23:31.175Z,77.13
2022-12-15T21:26:33.423Z,70.37
2022-12-15T21:29:35.877Z,81.47
2022-12-15T21:32:37.959Z,67.70
2022-12-15T21:35:41.094Z,69.53
2022-12-15T21:38:44.431Z,82.85
2022-12-15T21:41:46.894Z,84.97
2022-12-15T21:44:48.943Z,77.55
2022-12-15T21:48:10.283Z,68.73
2022-12-15T21:51:13.968Z,71.25
2022-12-15T21:54:28.837Z,74.03
2022-12-15T21:57:32.933Z,82.97
2022-12-15T22:00:35.081Z,84.33
2022-12-15T22:03:37.997Z,71.00
2022-12-15T22:06:40.090Z,74.75
2022-12-15T22:09:42.207Z,103.30
2022-12-15T22:12:47.406Z,107.67
2022-12-15T22:15:50.965Z,115.55
2022-12-15T22:18:55.539Z,114.88
2022-12-15T22:21:57.697Z,102.72
2022-12-15T22:24:59.740Z,99.07
2022-12-15T22:28:01.795Z,92.55
2022-12-15T22:31:04.413Z,93.78
2022-12-15T22:34:11.998Z,78.93
2022-12-15T22:37:14.153Z,91.77
2022-12-15T22:40:17.534Z,84.72
2022-12-15T22:43:22.590Z,77.35
2022-12-15T22:46:24.929Z,65.50
2022-12-15T22:49:31.681Z,63.97
2022-12-15T22:52:34.058Z,60.33
2022-12-15T22:55:36.247Z,57.72
2022-12-15T22:58:40.946Z,50.50
2022-12-15T23:01:43.149Z,51.92
2022-12-15T23:04:45.388Z,59.08
2022-12-15T23:07:47.474Z,51.15
2022-12-15T23:11:08.460Z,51.70
2022-12-15T23:14:15.640Z,40.90
2022-12-15T23:17:17.737Z,38.67
2022-12-15T23:20:19.796Z,41.92
2022-12-15T23:23:21.929Z,53.27
2022-12-15T23:26:24.293Z,56.72
2022-12-15T23:29:26.855Z,50.72
2022-12-15T23:32:28.986Z,49.42
2022-12-15T23:35:31.135Z,51.90
2022-12-15T23:38:33.430Z,65.93
2022-12-15T23:41:35.798Z,58.30
2022-12-15T23:44:38.032Z,61.53
2022-12-15T23:47:40.632Z,61.63
2022-12-15T23:50:42.757Z,62.67
2022-12-15T23:53:45.850Z,61.13
2022-12-15T23:56:48.054Z,65.88
2022-12-15T23:59:50.238Z,60.93
